Leonard, Minnesota
Current Conditions -  °F | °C
As of 2:33 AM on Tuesday 21 Oct 2014 (Local Time) from KBJI Reporting Station
Clear Clear  
Wind Chill: 35°   Ceiling: Unl
Heat Index: 35°   Visibility: 10mi
Dew Point: 35°   Wind: 3mph
Humidity: 99%   Direction: 130°SE
Pressure: 30.12"   Gusts: NA
Location:  47.65°N, 95.27°W
Report Text: KBJI 210733Z AUTO 13003KT 10SM CLR 02/02 A3012 RMK AO2 T00170015
Loading
Personal Weather Stations






























Interactive Weather Map
Tropical Storm Tracking
New forecast layout! Learn more

10-Day Weather Forecast

Advertisements
Track Severe Weather on mobile